Sheng Jia 1 — XUGG7 — position and weather

sailwx.info

Track history (hours):
 
Tides and Currents Weather Stations Pressure Air Temp Water Temp Dewpoint Dewpoint Depression Visibility Wind Speed Wind Dir Waves Ship Positions

Sheng Jia 1

Last reported at 2015-Jan-25 15:34 UTC. Time now 2015-Jan-25 16:19 UTC.
Position N 34°32' E 135°22'.

Length 73 m; draft 3.4 m.

Type: Cargo ship. MMSI: 515744000.

Date/timePositionNaut miles runAvg speedWind from/ knotsBaromVisibWave heightAir tempDewpointWater temp
2015-Jan-25 15:34N 34°32' E 135°22'0 0.0
2015-Jan-25 14:33N 34°32' E 135°22'0 0.0
2015-Jan-25 13:34N 34°32' E 135°22'0 0.0
2015-Jan-25 12:34N 34°32' E 135°22'0 0.0
2015-Jan-25 11:33N 34°32' E 135°22'5 4.8
2015-Jan-25 10:33N 34°33' E 135°16'1111.4
2015-Jan-25 09:33N 34°36' E 135°03'  
2015-Jan-23 05:23N 33°51' E 130°13'8 9.8
2015-Jan-23 04:33N 33°46' E 130°05'10 9.6
2015-Jan-23 03:33N 33°41' E 129°55'413 8.1
2015-Jan-21 00:33N 31°01' E 122°25'7 7.1
2015-Jan-20 23:33N 31°02' E 122°16'8 7.8
2015-Jan-20 22:33N 31°03' E 122°07'1211.8
2015-Jan-20 21:33N 31°08' E 121°55'1312.9
2015-Jan-20 20:33N 31°17' E 121°44'1111.1
2015-Jan-20 19:33N 31°24' E 121°34'8 7.9
2015-Jan-20 18:33N 31°29' E 121°27'6 6.2
2015-Jan-20 17:33N 31°32' E 121°21'6 6.4
2015-Jan-20 16:33N 31°37' E 121°16'6 6.0
2015-Jan-20 15:33N 31°41' E 121°10'9 9.5
2015-Jan-20 14:33N 31°46' E 121°01'1010.2
2015-Jan-20 13:33N 31°54' E 120°53'10 9.9
2015-Jan-20 12:33N 32°00' E 120°44'10 9.9
2015-Jan-20 11:33N 32°03' E 120°33'9 8.8
2015-Jan-20 10:33N 32°01' E 120°23'9 8.9
2015-Jan-20 09:33N 31°56' E 120°15'8 7.7
2015-Jan-20 08:34N 31°57' E 120°06'7 7.2
2015-Jan-20 07:33N 32°00' E 119°58'9 8.7
2015-Jan-20 06:31N 32°09' E 119°54'  
2015-Jan-17 10:26N 32°07' E 119°55'9 9.8
2015-Jan-17 09:32N 31°59' E 119°60'1010.3
2015-Jan-17 08:33N 31°56' E 120°11'1110.6
2015-Jan-17 07:33N 31°60' E 120°23'1010.3
2015-Jan-17 06:33N 32°01' E 120°35'1211.5
2015-Jan-17 05:33N 32°00' E 120°48'1411.5
2015-Jan-17 04:21N 31°48' E 120°56'1311.7
2015-Jan-17 03:16N 31°42' E 121°09'912.5
2015-Jan-17 02:33N 31°36' E 121°17'1212.1
2015-Jan-17 01:33N 31°28' E 121°27'1010.3
2015-Jan-17 00:33N 31°22' E 121°37'1110.6
2015-Jan-16 23:33N 31°15' E 121°46'1211.5
2015-Jan-16 22:33N 31°07' E 121°56'1211.5
2015-Jan-16 21:33N 31°04' E 122°09'1010.0
2015-Jan-16 20:33N 31°02' E 122°20'3 0.4
2015-Jan-16 14:23N 30°59' E 122°22'0 0.0
2015-Jan-16 12:26N 30°59' E 122°22'0 0.0
2015-Jan-16 11:32N 30°59' E 122°22'0 0.0
2015-Jan-16 10:19N 30°59' E 122°22'0 0.0
2015-Jan-16 09:32N 30°59' E 122°22'0 0.0
2015-Jan-16 08:28N 30°59' E 122°22'0 0.0
2015-Jan-16 07:32N 30°59' E 122°22'1 1.3
2015-Jan-16 06:33N 30°58' E 122°21'9 8.6
2015-Jan-16 05:33N 30°50' E 122°19'10 9.4
2015-Jan-16 04:30N 30°40' E 122°15'1010.0
2015-Jan-16 03:31N 30°31' E 122°10'1111.8
2015-Jan-16 02:33N 30°26' E 121°59'1310.3
2015-Jan-16 01:17N 30°17' E 121°48'1810.0
2015-Jan-15 23:31N 29°59' E 121°47'  
Track history (hours):
 
Tides and Currents Weather Stations Pressure Air Temp Water Temp Dewpoint Dewpoint Depression Visibility Wind Speed Wind Dir Waves Ship Positions

Sheng Jia 1

Last reported at 2015-Jan-25 15:34 UTC. Time now 2015-Jan-25 16:19 UTC.
Position N 34°32' E 135°22'.

Length 73 m; draft 3.4 m.

Type: Cargo ship. MMSI: 515744000.

Date/timePositionNaut miles runAvg speedWind from/ knotsBaromVisibWave heightAir tempDewpointWater temp
2015-Jan-25 15:34N 34°32' E 135°22'0 0.0
2015-Jan-25 14:33N 34°32' E 135°22'0 0.0
2015-Jan-25 13:34N 34°32' E 135°22'0 0.0
2015-Jan-25 12:34N 34°32' E 135°22'0 0.0
2015-Jan-25 11:33N 34°32' E 135°22'5 4.8
2015-Jan-25 10:33N 34°33' E 135°16'1111.4
2015-Jan-25 09:33N 34°36' E 135°03'  
2015-Jan-23 05:23N 33°51' E 130°13'8 9.8
2015-Jan-23 04:33N 33°46' E 130°05'10 9.6
2015-Jan-23 03:33N 33°41' E 129°55'413 8.1
2015-Jan-21 00:33N 31°01' E 122°25'7 7.1
2015-Jan-20 23:33N 31°02' E 122°16'8 7.8
2015-Jan-20 22:33N 31°03' E 122°07'1211.8
2015-Jan-20 21:33N 31°08' E 121°55'1312.9
2015-Jan-20 20:33N 31°17' E 121°44'1111.1
2015-Jan-20 19:33N 31°24' E 121°34'8 7.9
2015-Jan-20 18:33N 31°29' E 121°27'6 6.2
2015-Jan-20 17:33N 31°32' E 121°21'6 6.4
2015-Jan-20 16:33N 31°37' E 121°16'6 6.0
2015-Jan-20 15:33N 31°41' E 121°10'9 9.5
2015-Jan-20 14:33N 31°46' E 121°01'1010.2
2015-Jan-20 13:33N 31°54' E 120°53'10 9.9
2015-Jan-20 12:33N 32°00' E 120°44'10 9.9
2015-Jan-20 11:33N 32°03' E 120°33'9 8.8
2015-Jan-20 10:33N 32°01' E 120°23'9 8.9
2015-Jan-20 09:33N 31°56' E 120°15'8 7.7
2015-Jan-20 08:34N 31°57' E 120°06'7 7.2
2015-Jan-20 07:33N 32°00' E 119°58'9 8.7
2015-Jan-20 06:31N 32°09' E 119°54'  
2015-Jan-17 10:26N 32°07' E 119°55'9 9.8
2015-Jan-17 09:32N 31°59' E 119°60'1010.3
2015-Jan-17 08:33N 31°56' E 120°11'1110.6
2015-Jan-17 07:33N 31°60' E 120°23'1010.3
2015-Jan-17 06:33N 32°01' E 120°35'1211.5
2015-Jan-17 05:33N 32°00' E 120°48'1411.5
2015-Jan-17 04:21N 31°48' E 120°56'1311.7
2015-Jan-17 03:16N 31°42' E 121°09'912.5
2015-Jan-17 02:33N 31°36' E 121°17'1212.1
2015-Jan-17 01:33N 31°28' E 121°27'1010.3
2015-Jan-17 00:33N 31°22' E 121°37'1110.6
2015-Jan-16 23:33N 31°15' E 121°46'1211.5
2015-Jan-16 22:33N 31°07' E 121°56'1211.5
2015-Jan-16 21:33N 31°04' E 122°09'1010.0
2015-Jan-16 20:33N 31°02' E 122°20'3 0.4
2015-Jan-16 14:23N 30°59' E 122°22'0 0.0
2015-Jan-16 12:26N 30°59' E 122°22'0 0.0
2015-Jan-16 11:32N 30°59' E 122°22'0 0.0
2015-Jan-16 10:19N 30°59' E 122°22'0 0.0
2015-Jan-16 09:32N 30°59' E 122°22'0 0.0
2015-Jan-16 08:28N 30°59' E 122°22'0 0.0
2015-Jan-16 07:32N 30°59' E 122°22'1 1.3
2015-Jan-16 06:33N 30°58' E 122°21'9 8.6
2015-Jan-16 05:33N 30°50' E 122°19'10 9.4
2015-Jan-16 04:30N 30°40' E 122°15'1010.0
2015-Jan-16 03:31N 30°31' E 122°10'1111.8
2015-Jan-16 02:33N 30°26' E 121°59'1310.3
2015-Jan-16 01:17N 30°17' E 121°48'1810.0
2015-Jan-15 23:31N 29°59' E 121°47'  

Dump ship's entire track history